createdAt,value
2023-02-11T00:01:31.825Z,23.50
2023-02-11T00:04:00.228Z,16.43
2023-02-11T00:06:30.000Z,20.57
2023-02-11T00:08:57.438Z,22.63
2023-02-11T00:11:30.306Z,19.83
2023-02-11T00:14:00.150Z,17.60
2023-02-11T00:16:28.669Z,19.30
2023-02-11T00:18:55.971Z,18.30
2023-02-11T00:21:27.347Z,17.57
2023-02-11T00:23:57.090Z,18.23
2023-02-11T00:26:32.437Z,18.37
2023-02-11T00:29:01.936Z,18.13
2023-02-11T00:31:29.441Z,21.47
2023-02-11T00:33:57.001Z,21.97
2023-02-11T00:36:27.830Z,19.07
2023-02-11T00:38:57.145Z,19.83
2023-02-11T00:41:24.678Z,19.03
2023-02-11T00:43:52.658Z,21.97
2023-02-11T00:46:20.721Z,18.47
2023-02-11T00:48:48.728Z,19.90
2023-02-11T00:51:15.922Z,17.30
2023-02-11T00:53:43.505Z,17.37
2023-02-11T00:56:10.560Z,16.30
2023-02-11T00:58:37.886Z,20.07
2023-02-11T01:01:05.510Z,19.93
2023-02-11T01:03:33.162Z,17.33
2023-02-11T01:06:00.479Z,17.97
2023-02-11T01:08:28.034Z,23.80
2023-02-11T01:11:06.234Z,20.53
2023-02-11T01:13:37.140Z,20.73
2023-02-11T01:16:07.713Z,16.63
2023-02-11T01:18:34.948Z,17.90
2023-02-11T01:21:01.994Z,17.97
2023-02-11T01:23:29.223Z,18.50
2023-02-11T01:25:56.848Z,16.07
2023-02-11T01:28:27.344Z,17.93
2023-02-11T01:30:55.755Z,15.87
2023-02-11T01:33:23.942Z,18.83
2023-02-11T01:35:51.439Z,16.43
2023-02-11T01:38:26.380Z,15.07
2023-02-11T01:41:00.916Z,17.47
2023-02-11T01:43:33.208Z,16.40
2023-02-11T01:46:28.487Z,16.40
2023-02-11T01:49:15.025Z,18.10
2023-02-11T01:52:28.758Z,16.97
2023-02-11T01:55:29.336Z,14.80
2023-02-11T01:58:02.484Z,14.77
2023-02-11T02:00:39.025Z,12.83
2023-02-11T02:03:17.169Z,14.80
2023-02-11T02:06:02.643Z,16.13
2023-02-11T02:08:51.166Z,14.03
2023-02-11T02:11:18.209Z,16.53
2023-02-11T02:13:45.861Z,16.33
2023-02-11T02:16:19.385Z,16.40
2023-02-11T02:19:23.470Z,14.97
2023-02-11T02:22:45.541Z,15.43
2023-02-11T02:25:34.551Z,17.53
2023-02-11T02:28:28.146Z,14.77
2023-02-11T02:31:43.041Z,19.00
2023-02-11T02:34:27.371Z,11.63
2023-02-11T02:37:09.697Z,15.07
2023-02-11T02:39:37.449Z,19.20
2023-02-11T02:42:06.028Z,15.47
2023-02-11T02:44:34.436Z,13.17
2023-02-11T02:47:01.500Z,11.67
2023-02-11T02:49:28.477Z,11.53
2023-02-11T02:52:30.737Z,14.27
2023-02-11T02:55:38.497Z,13.67
2023-02-11T02:58:32.978Z,14.83
2023-02-11T03:01:25.620Z,15.97
2023-02-11T03:04:22.641Z,15.43
2023-02-11T03:07:00.780Z,17.60
2023-02-11T03:10:16.571Z,14.90
2023-02-11T03:12:45.787Z,15.63
2023-02-11T03:15:13.928Z,18.97
2023-02-11T03:17:47.664Z,17.30
2023-02-11T03:20:20.266Z,15.23
2023-02-11T03:22:52.982Z,14.27
2023-02-11T03:25:23.389Z,15.13
2023-02-11T03:27:58.382Z,14.50
2023-02-11T03:31:20.497Z,16.27
2023-02-11T03:34:28.102Z,16.27
2023-02-11T03:37:02.613Z,14.37
2023-02-11T03:39:40.756Z,13.10
2023-02-11T03:42:11.169Z,14.80
2023-02-11T03:44:45.107Z,14.20
2023-02-11T03:47:14.746Z,12.47
2023-02-11T03:49:43.717Z,12.53
2023-02-11T03:52:13.928Z,17.43
2023-02-11T03:54:43.672Z,16.97
2023-02-11T03:57:11.067Z,13.03
2023-02-11T04:00:05.377Z,15.77
2023-02-11T04:02:35.585Z,17.03
2023-02-11T04:05:02.750Z,13.63
2023-02-11T04:07:30.203Z,15.27
2023-02-11T04:09:57.436Z,18.80
2023-02-11T04:12:24.755Z,13.80
2023-02-11T04:14:52.148Z,14.37
2023-02-11T04:17:19.570Z,19.40
2023-02-11T04:19:46.633Z,16.00
2023-02-11T04:22:14.086Z,16.00
2023-02-11T04:24:41.444Z,16.00
2023-02-11T04:27:08.819Z,13.93
2023-02-11T04:29:36.154Z,14.40
2023-02-11T04:32:03.586Z,20.03
2023-02-11T04:34:31.014Z,15.50
2023-02-11T04:36:58.262Z,13.27
2023-02-11T04:39:25.540Z,18.90
2023-02-11T04:41:52.623Z,16.27
2023-02-11T04:44:19.748Z,18.97
2023-02-11T04:46:47.448Z,17.03
2023-02-11T04:49:16.557Z,14.63
2023-02-11T04:51:47.577Z,20.40
2023-02-11T04:54:16.133Z,11.73
2023-02-11T04:56:43.327Z,20.10
2023-02-11T04:59:11.508Z,18.83
2023-02-11T05:01:39.163Z,16.97
2023-02-11T05:04:06.561Z,14.60
2023-02-11T05:06:33.670Z,16.30
2023-02-11T05:09:00.850Z,15.13
2023-02-11T05:11:27.869Z,16.17
2023-02-11T05:13:54.936Z,23.17
2023-02-11T05:16:22.390Z,21.70
2023-02-11T05:18:52.412Z,15.03
2023-02-11T05:21:20.079Z,14.27
2023-02-11T05:23:47.534Z,19.77
2023-02-11T05:26:15.296Z,16.20
2023-02-11T05:28:43.574Z,19.43
2023-02-11T05:31:12.360Z,20.27
2023-02-11T05:33:39.441Z,15.33
2023-02-11T05:36:10.888Z,19.73
2023-02-11T05:38:39.166Z,17.67
2023-02-11T05:41:06.869Z,18.23
2023-02-11T05:43:37.207Z,18.17
2023-02-11T05:46:05.663Z,16.10
2023-02-11T05:48:33.745Z,20.03
2023-02-11T05:51:00.898Z,16.43
2023-02-11T05:53:28.101Z,18.50
2023-02-11T05:55:55.241Z,20.53
2023-02-11T05:58:22.422Z,19.00
2023-02-11T06:00:49.538Z,18.47
2023-02-11T06:03:16.714Z,19.90
2023-02-11T06:05:45.729Z,20.83
2023-02-11T06:08:13.145Z,21.03
2023-02-11T06:10:43.106Z,20.37
2023-02-11T06:13:10.166Z,19.10
2023-02-11T06:15:37.367Z,23.17
2023-02-11T06:18:05.193Z,20.80
2023-02-11T06:20:32.697Z,23.90
2023-02-11T06:23:00.121Z,23.37
2023-02-11T06:25:27.158Z,24.50
2023-02-11T06:27:54.323Z,18.53
2023-02-11T06:30:21.518Z,25.20
2023-02-11T06:32:48.768Z,26.90
2023-02-11T06:35:16.153Z,25.07
2023-02-11T06:37:43.877Z,26.80
2023-02-11T06:40:12.163Z,27.90
2023-02-11T06:42:39.990Z,23.27
2023-02-11T06:45:12.991Z,21.27
2023-02-11T06:47:41.275Z,24.80
2023-02-11T06:50:12.046Z,28.07
2023-02-11T06:52:39.350Z,27.77
2023-02-11T06:55:06.828Z,27.37
2023-02-11T06:57:34.129Z,22.53
2023-02-11T07:00:01.542Z,24.20
2023-02-11T07:02:28.756Z,24.00
2023-02-11T07:04:56.101Z,24.70
2023-02-11T07:07:23.458Z,25.67
2023-02-11T07:09:50.652Z,33.57
2023-02-11T07:12:17.876Z,25.63
2023-02-11T07:14:45.142Z,30.77
2023-02-11T07:17:15.118Z,27.47
2023-02-11T07:19:42.715Z,29.60
2023-02-11T07:22:09.950Z,32.23
2023-02-11T07:24:36.985Z,30.33
2023-02-11T07:27:04.692Z,33.50
2023-02-11T07:29:32.089Z,35.70
2023-02-11T07:31:59.516Z,34.77
2023-02-11T07:34:27.007Z,40.77
2023-02-11T07:36:54.231Z,41.80
2023-02-11T07:39:22.647Z,40.93
2023-02-11T07:41:49.756Z,33.77
2023-02-11T07:44:17.070Z,41.60
2023-02-11T07:46:45.307Z,50.93
2023-02-11T07:49:13.072Z,37.40
2023-02-11T07:51:40.339Z,42.50
2023-02-11T07:54:07.765Z,41.20
2023-02-11T07:56:35.009Z,40.43
2023-02-11T07:59:03.860Z,39.00
2023-02-11T08:01:32.013Z,46.53
2023-02-11T08:04:01.236Z,43.23
2023-02-11T08:06:33.004Z,43.93
2023-02-11T08:09:07.959Z,44.90
2023-02-11T08:11:35.824Z,49.53
2023-02-11T08:14:03.235Z,42.53
2023-02-11T08:16:35.744Z,51.53
2023-02-11T08:19:11.618Z,50.93
2023-02-11T08:21:39.762Z,50.27
2023-02-11T08:24:07.987Z,50.93
2023-02-11T08:26:36.118Z,56.73
2023-02-11T08:29:08.680Z,55.57
2023-02-11T08:31:40.539Z,54.77
2023-02-11T08:34:08.508Z,56.03
2023-02-11T08:36:39.428Z,56.60
2023-02-11T08:39:19.267Z,55.87
2023-02-11T08:41:56.646Z,58.13
2023-02-11T08:44:25.299Z,61.27
2023-02-11T08:46:53.936Z,54.70
2023-02-11T08:49:22.200Z,66.90
2023-02-11T08:51:50.068Z,61.90
2023-02-11T08:54:17.200Z,54.07
2023-02-11T08:56:44.677Z,58.47
2023-02-11T08:59:15.395Z,55.80
2023-02-11T09:01:44.419Z,54.63
2023-02-11T09:04:11.698Z,64.37
2023-02-11T09:06:38.957Z,62.07
2023-02-11T09:09:06.295Z,61.10
2023-02-11T09:11:35.902Z,57.33
2023-02-11T09:14:04.447Z,59.83
2023-02-11T09:16:35.804Z,60.23
2023-02-11T09:19:05.510Z,57.27
2023-02-11T09:21:32.681Z,59.57
2023-02-11T09:23:59.858Z,58.60
2023-02-11T09:26:32.439Z,59.60
2023-02-11T09:29:01.353Z,61.83
2023-02-11T09:31:32.111Z,54.57
2023-02-11T09:34:04.423Z,57.10
2023-02-11T09:36:37.549Z,64.43
2023-02-11T09:39:09.555Z,59.53
2023-02-11T09:42:03.564Z,60.87
2023-02-11T09:44:35.161Z,59.57
2023-02-11T09:47:17.701Z,57.87
2023-02-11T09:49:53.723Z,64.23
2023-02-11T09:52:58.855Z,67.63
2023-02-11T09:55:42.750Z,66.63
2023-02-11T09:58:32.076Z,62.07
2023-02-11T10:01:33.252Z,58.47
2023-02-11T10:04:12.325Z,64.40
2023-02-11T10:06:47.106Z,63.03
2023-02-11T10:09:31.698Z,63.87
2023-02-11T10:13:01.247Z,62.47
2023-02-11T10:15:50.351Z,64.07
2023-02-11T10:18:44.442Z,64.37
2023-02-11T10:21:59.033Z,64.37
2023-02-11T10:24:29.186Z,62.43
2023-02-11T10:26:56.217Z,64.67
2023-02-11T10:30:02.975Z,64.70
2023-02-11T10:32:51.196Z,62.30
2023-02-11T10:35:22.405Z,69.10
2023-02-11T10:37:49.820Z,71.03
2023-02-11T10:44:33.848Z,69.13
2023-02-11T10:47:33.266Z,72.07
2023-02-11T10:50:03.689Z,70.60
2023-02-11T10:52:31.369Z,69.70
2023-02-11T10:55:14.901Z,71.40
2023-02-11T10:58:00.957Z,68.47
2023-02-11T11:00:38.945Z,67.80
2023-02-11T11:03:24.373Z,68.47
2023-02-11T11:05:59.745Z,72.67
2023-02-11T11:08:50.836Z,73.73
2023-02-11T11:11:21.853Z,65.43
2023-02-11T11:14:00.076Z,65.77
2023-02-11T11:16:32.462Z,66.13
2023-02-11T11:19:08.928Z,75.17
2023-02-11T11:21:54.316Z,65.63
2023-02-11T11:24:45.133Z,61.90
2023-02-11T11:27:21.932Z,60.27
2023-02-11T11:29:55.872Z,60.40
2023-02-11T11:32:32.396Z,61.23
2023-02-11T11:35:20.486Z,63.57
2023-02-11T11:38:02.043Z,60.20
2023-02-11T11:40:32.664Z,63.20
2023-02-11T11:43:23.127Z,62.00
2023-02-11T11:46:00.221Z,69.50
2023-02-11T11:48:43.910Z,59.83
2023-02-11T11:51:12.753Z,64.07
2023-02-11T11:53:48.157Z,65.37
2023-02-11T11:56:41.287Z,62.47
2023-02-11T11:59:16.465Z,59.17
2023-02-11T12:02:20.324Z,58.03
2023-02-11T12:04:53.246Z,59.30
2023-02-11T12:07:50.824Z,57.83
2023-02-11T12:10:30.814Z,57.97
2023-02-11T12:27:37.792Z,60.17
2023-02-11T12:30:49.579Z,61.30
2023-02-11T12:33:37.338Z,59.40
2023-02-11T12:36:25.304Z,62.57
2023-02-11T12:39:11.236Z,65.43
2023-02-11T12:45:41.279Z,64.73
2023-02-11T12:48:23.145Z,63.43
2023-02-11T12:51:12.934Z,60.17
2023-02-11T12:54:12.850Z,63.10
2023-02-11T12:56:50.319Z,60.72
2023-02-11T12:59:50.559Z,65.15
2023-02-11T13:02:47.598Z,65.93
2023-02-11T13:05:38.634Z,67.28
2023-02-11T13:08:44.484Z,63.83
2023-02-11T13:11:40.313Z,67.03
2023-02-11T13:14:39.152Z,64.05
2023-02-11T13:17:23.456Z,64.60
2023-02-11T13:20:34.945Z,62.97
2023-02-11T13:23:39.973Z,66.85
2023-02-11T13:26:30.841Z,63.78
2023-02-11T13:29:20.482Z,62.13
2023-02-11T13:32:07.417Z,61.40
2023-02-11T13:34:43.425Z,58.78
2023-02-11T13:37:38.743Z,59.53
2023-02-11T13:40:23.070Z,53.40
2023-02-11T13:42:57.888Z,59.33
2023-02-11T13:45:45.607Z,59.28
2023-02-11T13:48:24.912Z,57.20
2023-02-11T13:51:10.831Z,56.47
2023-02-11T13:53:57.650Z,58.88
2023-02-11T13:56:38.140Z,57.42
2023-02-11T13:59:33.492Z,56.22
2023-02-11T14:02:19.548Z,59.40
2023-02-11T14:05:23.277Z,58.03
2023-02-11T14:08:30.787Z,55.95
2023-02-11T14:11:03.729Z,57.97
2023-02-11T14:13:32.664Z,58.90
2023-02-11T14:16:20.325Z,54.33
2023-02-11T14:18:55.329Z,56.85
2023-02-11T14:21:31.085Z,58.22
2023-02-11T14:24:10.935Z,55.05
2023-02-11T14:27:01.039Z,57.90
2023-02-11T14:29:55.028Z,57.97
2023-02-11T14:33:14.060Z,55.85
2023-02-11T14:36:31.258Z,54.97
2023-02-11T14:39:26.701Z,51.88
2023-02-11T14:41:54.761Z,56.65
2023-02-11T14:44:27.131Z,53.97
2023-02-11T14:46:55.633Z,53.85
2023-02-11T14:49:36.216Z,52.13
2023-02-11T14:52:26.745Z,56.15
2023-02-11T14:55:37.537Z,58.08
2023-02-11T14:58:23.556Z,56.72
2023-02-11T15:01:22.625Z,52.60
2023-02-11T15:03:50.242Z,58.63
2023-02-11T15:06:28.943Z,53.67
2023-02-11T15:09:13.133Z,54.53
2023-02-11T15:11:43.382Z,50.70
2023-02-11T15:14:33.189Z,54.75
2023-02-11T15:17:06.474Z,55.00
2023-02-11T15:19:41.244Z,54.50
2023-02-11T15:22:28.155Z,57.65
2023-02-11T15:25:07.070Z,53.70
2023-02-11T15:27:53.242Z,57.33
2023-02-11T15:30:23.203Z,52.10
2023-02-11T15:33:03.309Z,54.63
2023-02-11T15:35:38.675Z,54.13
2023-02-11T15:38:06.754Z,54.57
2023-02-11T15:40:36.871Z,54.80
2023-02-11T15:43:10.581Z,54.73
2023-02-11T15:45:52.689Z,58.33
2023-02-11T15:48:27.008Z,57.00
2023-02-11T15:51:02.592Z,54.97
2023-02-11T15:53:43.146Z,58.25
2023-02-11T15:56:49.141Z,58.80
2023-02-11T15:59:33.235Z,54.43
2023-02-11T16:02:31.474Z,55.57
2023-02-11T16:05:06.745Z,53.93
2023-02-11T16:07:43.731Z,55.50
2023-02-11T16:10:23.507Z,58.33
2023-02-11T16:13:13.752Z,55.73
2023-02-11T16:15:58.156Z,55.70
2023-02-11T16:18:37.832Z,53.23
2023-02-11T16:21:15.852Z,56.47
2023-02-11T16:23:49.467Z,54.00
2023-02-11T16:26:41.017Z,54.50
2023-02-11T16:29:22.050Z,55.63
2023-02-11T16:31:50.353Z,55.33
2023-02-11T16:34:25.982Z,54.40
2023-02-11T16:36:53.452Z,53.20
2023-02-11T16:39:22.531Z,55.80
2023-02-11T16:41:51.668Z,51.20
2023-02-11T16:44:18.896Z,52.63
2023-02-11T16:46:46.628Z,52.00
2023-02-11T16:49:41.685Z,58.13
2023-02-11T16:52:15.393Z,51.63
2023-02-11T16:54:42.533Z,52.33
2023-02-11T16:57:17.258Z,58.40
2023-02-11T16:59:44.942Z,54.80
2023-02-11T17:02:31.501Z,54.27
2023-02-11T17:05:06.315Z,53.13
2023-02-11T17:07:33.715Z,53.23
2023-02-11T17:10:01.035Z,58.37
2023-02-11T17:12:28.132Z,61.17
2023-02-11T17:14:55.364Z,57.93
2023-02-11T17:17:23.866Z,54.80
2023-02-11T17:19:51.367Z,57.90
2023-02-11T17:22:18.734Z,55.30
2023-02-11T17:24:46.030Z,53.10
2023-02-11T17:27:13.782Z,55.50
2023-02-11T17:29:41.212Z,54.23
2023-02-11T17:32:08.531Z,53.57
2023-02-11T17:34:35.627Z,55.47
2023-02-11T17:37:08.924Z,57.17
2023-02-11T17:39:37.740Z,57.67
2023-02-11T17:42:06.219Z,56.33
2023-02-11T17:44:34.440Z,52.20
2023-02-11T17:47:01.526Z,52.73
2023-02-11T17:49:28.837Z,54.03
2023-02-11T17:51:56.383Z,56.93
2023-02-11T17:54:24.775Z,56.40
2023-02-11T17:56:55.137Z,54.93
2023-02-11T17:59:25.295Z,61.90
2023-02-11T18:01:52.550Z,60.37
2023-02-11T18:04:20.411Z,57.13
2023-02-11T18:06:48.063Z,54.67
2023-02-11T18:09:15.199Z,53.00
2023-02-11T18:11:42.744Z,58.17
2023-02-11T18:14:11.650Z,55.27
2023-02-11T18:16:42.946Z,57.57
2023-02-11T18:19:16.580Z,56.07
2023-02-11T18:21:43.673Z,60.40
2023-02-11T18:24:10.813Z,61.87
2023-02-11T18:26:38.194Z,58.90
2023-02-11T18:29:07.080Z,60.10
2023-02-11T18:31:37.963Z,55.77
2023-02-11T18:34:08.041Z,62.30
2023-02-11T18:36:35.930Z,60.67
2023-02-11T18:39:03.872Z,55.57
2023-02-11T18:41:31.148Z,58.33
2023-02-11T18:43:58.878Z,61.33
2023-02-11T18:46:26.064Z,60.30
2023-02-11T18:48:56.086Z,62.70
2023-02-11T18:51:23.693Z,63.23
2023-02-11T18:53:50.836Z,61.07
2023-02-11T18:56:22.872Z,72.53
2023-02-11T18:58:51.435Z,66.37
2023-02-11T19:01:24.514Z,76.90
2023-02-11T19:03:52.236Z,87.63
2023-02-11T19:06:24.958Z,84.90
2023-02-11T19:08:59.706Z,119.87
2023-02-11T19:11:47.125Z,79.20
2023-02-11T19:14:23.082Z,98.40
2023-02-11T19:16:56.650Z,85.30
2023-02-11T19:19:29.954Z,70.83
2023-02-11T19:21:58.921Z,66.23
2023-02-11T19:24:27.741Z,65.07
2023-02-11T19:26:59.435Z,64.23
2023-02-11T19:29:27.601Z,62.57
2023-02-11T19:31:55.541Z,60.77
2023-02-11T19:34:22.786Z,60.70
2023-02-11T19:36:50.971Z,64.43
2023-02-11T19:39:18.597Z,57.87
2023-02-11T19:41:45.712Z,61.23
2023-02-11T19:44:14.129Z,61.13
2023-02-11T19:46:41.566Z,58.00
2023-02-11T19:49:11.259Z,62.00
2023-02-11T19:51:39.468Z,57.00
2023-02-11T19:54:08.013Z,59.80
2023-02-11T19:56:35.516Z,60.77
2023-02-11T19:59:03.868Z,57.87
2023-02-11T20:01:31.202Z,56.60
2023-02-11T20:03:58.317Z,55.43
2023-02-11T20:06:29.753Z,56.20
2023-02-11T20:09:00.290Z,55.77
2023-02-11T20:11:30.423Z,53.90
2023-02-11T20:13:57.945Z,57.37
2023-02-11T20:16:44.738Z,60.33
2023-02-11T20:19:18.273Z,55.63
2023-02-11T20:21:48.260Z,53.67
2023-02-11T20:24:17.568Z,57.73
2023-02-11T20:29:56.938Z,53.53
2023-02-11T20:32:24.239Z,51.37
2023-02-11T20:34:51.480Z,51.50
2023-02-11T20:37:18.663Z,58.37
2023-02-11T20:39:45.689Z,55.90
2023-02-11T20:42:14.170Z,53.53
2023-02-11T20:44:41.596Z,54.20
2023-02-11T20:47:08.736Z,55.60
2023-02-11T20:49:35.878Z,54.10
2023-02-11T20:52:03.028Z,54.23
2023-02-11T20:54:30.337Z,54.67
2023-02-11T20:56:58.291Z,55.33
2023-02-11T20:59:26.570Z,50.40
2023-02-11T21:01:56.512Z,55.17
2023-02-11T21:04:30.508Z,51.83
2023-02-11T21:07:01.151Z,50.93
2023-02-11T21:09:32.080Z,52.53
2023-02-11T21:12:00.644Z,56.40
2023-02-11T21:14:28.477Z,53.60
2023-02-11T21:16:55.819Z,50.87
2023-02-11T21:19:22.971Z,51.90
2023-02-11T21:21:50.392Z,52.80
2023-02-11T21:24:17.702Z,51.17
2023-02-11T21:26:45.148Z,48.90
2023-02-11T21:29:12.627Z,52.13
2023-02-11T21:31:40.236Z,49.87
2023-02-11T21:34:07.832Z,50.63
2023-02-11T21:36:35.202Z,46.60
2023-02-11T21:39:03.865Z,50.47
2023-02-11T21:41:31.379Z,47.77
2023-02-11T21:43:59.016Z,48.90
2023-02-11T21:46:30.813Z,52.57
2023-02-11T21:48:58.484Z,49.77
2023-02-11T21:51:26.489Z,47.63
2023-02-11T21:54:03.758Z,48.27
2023-02-11T21:56:34.292Z,46.67
2023-02-11T21:59:04.383Z,48.13
2023-02-11T22:01:35.236Z,46.90
2023-02-11T22:04:02.665Z,43.90
2023-02-11T22:06:33.387Z,48.17
2023-02-11T22:09:09.432Z,44.30
2023-02-11T22:11:37.502Z,45.67
2023-02-11T22:14:04.882Z,46.03
2023-02-11T22:16:32.320Z,44.03
2023-02-11T22:19:02.315Z,41.73
2023-02-11T22:21:29.709Z,41.70
2023-02-11T22:23:57.042Z,42.43
2023-02-11T22:26:26.641Z,42.63
2023-02-11T22:28:54.877Z,38.27
2023-02-11T22:31:26.146Z,39.50
2023-02-11T22:33:53.687Z,40.77
2023-02-11T22:36:28.197Z,36.07
2023-02-11T22:38:55.946Z,35.00
2023-02-11T22:41:24.590Z,34.63
2023-02-11T22:43:51.857Z,37.00
2023-02-11T22:46:20.176Z,36.30
2023-02-11T22:48:48.139Z,37.33
2023-02-11T22:51:24.829Z,32.87
2023-02-11T22:53:57.252Z,32.03
2023-02-11T22:56:26.272Z,31.50
2023-02-11T22:58:56.363Z,30.33
2023-02-11T23:01:23.970Z,32.50
2023-02-11T23:03:51.292Z,29.83
2023-02-11T23:06:18.872Z,30.10
2023-02-11T23:08:46.478Z,30.67
2023-02-11T23:11:20.807Z,31.73
2023-02-11T23:13:50.718Z,31.87
2023-02-11T23:16:23.709Z,30.27
2023-02-11T23:18:52.523Z,29.83
2023-02-11T23:21:26.316Z,28.53
2023-02-11T23:24:03.816Z,29.67
2023-02-11T23:26:31.412Z,29.53
2023-02-11T23:28:59.741Z,31.70
2023-02-11T23:31:34.193Z,31.37
2023-02-11T23:34:01.875Z,29.20
2023-02-11T23:36:30.946Z,26.73
2023-02-11T23:38:58.394Z,28.03
2023-02-11T23:41:25.921Z,29.90
2023-02-11T23:43:56.314Z,24.60
2023-02-11T23:46:25.543Z,26.10
2023-02-11T23:48:53.054Z,23.63
2023-02-11T23:51:21.627Z,25.77
2023-02-11T23:53:49.716Z,28.00
2023-02-11T23:56:24.438Z,27.33
2023-02-11T23:58:55.185Z,27.43
